createdAt,value
2018-10-12T00:00:13.301Z,18.60
2018-10-12T00:01:16.468Z,18.60
2018-10-12T00:02:18.747Z,18.60
2018-10-12T00:03:21.096Z,18.60
2018-10-12T00:04:29.869Z,18.70
2018-10-12T00:05:32.042Z,18.60
2018-10-12T00:06:34.224Z,18.60
2018-10-12T00:07:36.420Z,18.60
2018-10-12T00:08:38.689Z,18.50
2018-10-12T00:09:40.893Z,18.50
2018-10-12T00:10:43.203Z,18.50
2018-10-12T00:11:45.381Z,18.50
2018-10-12T00:12:47.554Z,18.50
2018-10-12T00:13:49.754Z,18.50
2018-10-12T00:14:51.927Z,18.50
2018-10-12T00:15:54.294Z,18.50
2018-10-12T00:16:56.517Z,18.50
2018-10-12T00:17:58.964Z,18.50
2018-10-12T00:19:01.175Z,18.40
2018-10-12T00:20:03.746Z,18.40
2018-10-12T00:21:05.954Z,18.40
2018-10-12T00:22:08.235Z,18.40
2018-10-12T00:23:10.539Z,18.40
2018-10-12T00:24:12.988Z,18.40
2018-10-12T00:25:15.177Z,18.30
2018-10-12T00:26:17.367Z,18.30
2018-10-12T00:27:19.577Z,18.30
2018-10-12T00:28:21.805Z,18.30
2018-10-12T00:29:24.225Z,18.30
2018-10-12T00:30:26.525Z,18.30
2018-10-12T00:31:28.797Z,18.30
2018-10-12T00:32:31.051Z,18.30
2018-10-12T00:33:33.322Z,18.30
2018-10-12T00:34:35.504Z,18.30
2018-10-12T00:35:37.681Z,18.30
2018-10-12T00:36:39.909Z,18.30
2018-10-12T00:37:42.219Z,18.30
2018-10-12T00:38:44.618Z,18.30
2018-10-12T00:39:46.785Z,18.20
2018-10-12T00:40:49.003Z,18.20
2018-10-12T00:41:51.302Z,18.20
2018-10-12T00:42:53.506Z,18.20
2018-10-12T00:43:55.689Z,18.20
2018-10-12T00:44:57.903Z,18.30
2018-10-12T00:46:00.065Z,18.30
2018-10-12T00:47:02.296Z,18.30
2018-10-12T00:48:04.480Z,18.30
2018-10-12T00:49:07.075Z,18.40
2018-10-12T00:50:09.246Z,18.40
2018-10-12T00:51:11.617Z,18.40
2018-10-12T00:52:13.825Z,18.40
2018-10-12T00:53:16.010Z,18.40
2018-10-12T00:54:18.941Z,18.30
2018-10-12T00:55:22.553Z,18.40
2018-10-12T00:56:24.747Z,18.30
2018-10-12T00:57:26.911Z,18.30
2018-10-12T00:58:29.078Z,18.30
2018-10-12T00:59:31.285Z,18.30
2018-10-12T01:00:33.520Z,18.20
2018-10-12T01:01:35.676Z,18.20
2018-10-12T01:02:37.912Z,18.20
2018-10-12T01:03:40.029Z,18.20
2018-10-12T01:04:42.251Z,18.10
2018-10-12T01:05:44.417Z,18.20
2018-10-12T01:06:46.696Z,18.20
2018-10-12T01:07:48.832Z,18.10
2018-10-12T01:08:51.065Z,18.20
2018-10-12T01:09:53.261Z,18.10
2018-10-12T01:10:55.464Z,18.10
2018-10-12T01:12:09.416Z,18.10
2018-10-12T01:13:11.675Z,18.10
2018-10-12T01:14:13.976Z,18.10
2018-10-12T01:15:16.137Z,18.10
2018-10-12T01:16:18.610Z,18.10
2018-10-12T01:17:20.774Z,18.10
2018-10-12T01:18:22.988Z,18.10
2018-10-12T01:19:25.236Z,18.10
2018-10-12T01:20:27.587Z,18.10
2018-10-12T01:21:29.796Z,18.10
2018-10-12T01:22:32.022Z,18.10
2018-10-12T01:23:34.468Z,18.10
2018-10-12T01:24:36.645Z,18.10
2018-10-12T01:25:38.834Z,18.10
2018-10-12T01:26:41.013Z,18.10
2018-10-12T01:27:43.237Z,18.10
2018-10-12T01:28:49.094Z,18.10
2018-10-12T01:29:51.441Z,18.10
2018-10-12T01:30:53.676Z,18.10
2018-10-12T01:31:55.876Z,18.10
2018-10-12T01:33:02.073Z,18.10
2018-10-12T01:34:04.303Z,18.10
2018-10-12T01:35:06.538Z,18.10
2018-10-12T01:36:08.753Z,18.10
2018-10-12T01:37:11.049Z,18.10
2018-10-12T01:38:13.239Z,18.10
2018-10-12T01:39:15.601Z,18.10
2018-10-12T01:40:17.763Z,18.10
2018-10-12T01:41:19.930Z,18.10
2018-10-12T01:42:22.138Z,18.10
2018-10-12T01:43:24.365Z,18.10
2018-10-12T01:44:26.650Z,18.10
2018-10-12T01:45:29.023Z,18.10
2018-10-12T01:46:31.225Z,18.10
2018-10-12T01:47:33.434Z,18.10
2018-10-12T01:48:35.860Z,18.10
2018-10-12T01:49:38.476Z,18.10
2018-10-12T01:50:40.668Z,18.10
2018-10-12T01:51:42.868Z,18.10
2018-10-12T01:52:45.101Z,18.00
2018-10-12T01:53:47.580Z,18.00
2018-10-12T01:54:49.824Z,18.00
2018-10-12T01:55:56.604Z,18.00
2018-10-12T01:56:58.879Z,18.00
2018-10-12T01:58:01.205Z,18.00
2018-10-12T01:59:03.381Z,18.00
2018-10-12T02:00:05.665Z,17.90
2018-10-12T02:01:07.905Z,17.90
2018-10-12T02:02:10.137Z,17.90
2018-10-12T02:03:12.343Z,17.90
2018-10-12T02:04:14.502Z,17.90
2018-10-12T02:05:16.940Z,17.90
2018-10-12T02:06:19.116Z,17.90
2018-10-12T02:07:21.333Z,17.90
2018-10-12T02:08:23.970Z,17.90
2018-10-12T02:09:26.209Z,17.90
2018-10-12T02:10:28.459Z,17.90
2018-10-12T02:11:30.674Z,17.90
2018-10-12T02:12:32.898Z,17.90
2018-10-12T02:13:35.104Z,18.00
2018-10-12T02:14:37.309Z,18.00
2018-10-12T02:15:39.522Z,17.90
2018-10-12T02:16:41.720Z,18.00
2018-10-12T02:17:43.922Z,18.00
2018-10-12T02:18:46.128Z,18.00
2018-10-12T02:19:48.338Z,18.00
2018-10-12T02:20:50.531Z,18.00
2018-10-12T02:21:52.745Z,18.00
2018-10-12T02:22:54.912Z,18.00
2018-10-12T02:23:57.127Z,18.00
2018-10-12T02:24:59.322Z,18.00
2018-10-12T02:26:01.507Z,17.90
2018-10-12T02:27:03.689Z,18.00
2018-10-12T02:28:05.865Z,18.10
2018-10-12T02:29:08.032Z,18.00
2018-10-12T02:30:10.310Z,18.10
2018-10-12T02:31:12.490Z,18.00
2018-10-12T02:32:14.781Z,18.00
2018-10-12T02:33:16.969Z,18.00
2018-10-12T02:34:19.534Z,18.00
2018-10-12T02:35:21.795Z,18.00
2018-10-12T02:36:23.976Z,18.00
2018-10-12T02:37:26.199Z,18.00
2018-10-12T02:38:28.451Z,18.00
2018-10-12T02:39:30.636Z,18.00
2018-10-12T02:40:32.866Z,18.00
2018-10-12T02:41:35.073Z,18.00
2018-10-12T02:42:37.576Z,17.90
2018-10-12T02:43:39.718Z,17.90
2018-10-12T02:44:41.858Z,17.90
2018-10-12T02:45:44.057Z,17.90
2018-10-12T02:46:46.269Z,17.90
2018-10-12T02:47:48.544Z,17.90
2018-10-12T02:48:50.861Z,17.80
2018-10-12T02:49:53.037Z,17.80
2018-10-12T02:50:55.300Z,17.80
2018-10-12T02:51:57.472Z,17.80
2018-10-12T02:52:59.714Z,17.80
2018-10-12T02:54:01.875Z,17.80
2018-10-12T02:55:04.161Z,17.80
2018-10-12T02:56:06.614Z,17.80
2018-10-12T02:57:08.785Z,17.80
2018-10-12T02:58:11.003Z,17.80
2018-10-12T02:59:13.238Z,17.90
2018-10-12T03:00:15.396Z,17.90
2018-10-12T03:01:17.929Z,17.90
2018-10-12T03:02:20.782Z,17.90
2018-10-12T03:03:22.974Z,17.90
2018-10-12T03:04:25.164Z,17.90
2018-10-12T03:05:27.406Z,17.90
2018-10-12T03:06:29.665Z,17.90
2018-10-12T03:07:32.124Z,17.90
2018-10-12T03:08:34.298Z,17.90
2018-10-12T03:09:36.470Z,17.90
2018-10-12T03:10:38.687Z,18.00
2018-10-12T03:11:41.026Z,18.00
2018-10-12T03:12:43.229Z,18.00
2018-10-12T03:13:45.427Z,18.00
2018-10-12T03:14:47.769Z,17.90
2018-10-12T03:15:49.961Z,17.90
2018-10-12T03:16:52.121Z,17.90
2018-10-12T03:17:54.369Z,17.90
2018-10-12T03:18:56.549Z,17.90
2018-10-12T03:19:58.731Z,17.90
2018-10-12T03:21:00.923Z,17.90
2018-10-12T03:22:03.158Z,17.90
2018-10-12T03:23:05.409Z,17.90
2018-10-12T03:24:07.574Z,17.90
2018-10-12T03:25:09.780Z,17.90
2018-10-12T03:26:11.951Z,17.80
2018-10-12T03:27:14.144Z,17.80
2018-10-12T03:28:19.049Z,17.80
2018-10-12T03:29:21.232Z,17.80
2018-10-12T03:30:23.719Z,17.80
2018-10-12T03:31:25.894Z,17.80
2018-10-12T03:32:28.249Z,17.70
2018-10-12T03:33:30.639Z,17.70
2018-10-12T03:34:32.830Z,17.70
2018-10-12T03:36:44.014Z,17.70
2018-10-12T03:37:46.259Z,17.80
2018-10-12T03:38:48.663Z,17.70
2018-10-12T03:39:50.857Z,17.70
2018-10-12T03:40:53.049Z,17.70
2018-10-12T03:41:55.243Z,17.70
2018-10-12T03:42:57.478Z,17.70
2018-10-12T03:43:59.676Z,17.70
2018-10-12T03:45:01.865Z,17.70
2018-10-12T03:46:04.106Z,17.60
2018-10-12T03:47:06.310Z,17.60
2018-10-12T03:48:08.568Z,17.60
2018-10-12T03:49:10.793Z,17.60
2018-10-12T03:50:13.004Z,17.60
2018-10-12T03:51:15.182Z,17.60
2018-10-12T03:52:17.318Z,17.60
2018-10-12T03:53:19.536Z,17.50
2018-10-12T03:54:21.773Z,17.60
2018-10-12T03:55:24.105Z,17.50
2018-10-12T03:56:26.255Z,17.50
2018-10-12T03:57:28.505Z,17.50
2018-10-12T03:58:30.800Z,17.50
2018-10-12T03:59:32.965Z,17.50
2018-10-12T04:00:35.146Z,17.50
2018-10-12T04:01:37.321Z,17.60
2018-10-12T04:02:39.949Z,17.60
2018-10-12T04:03:42.275Z,17.60
2018-10-12T04:04:44.517Z,17.60
2018-10-12T04:05:46.719Z,17.60
2018-10-12T04:06:49.001Z,17.60
2018-10-12T04:07:51.238Z,17.60
2018-10-12T04:08:53.547Z,17.60
2018-10-12T04:09:55.793Z,17.60
2018-10-12T04:10:57.946Z,17.60
2018-10-12T04:12:00.181Z,17.60
2018-10-12T04:13:02.390Z,17.70
2018-10-12T04:14:04.615Z,17.70
2018-10-12T04:15:06.825Z,17.70
2018-10-12T04:16:08.959Z,17.70
2018-10-12T04:17:11.172Z,17.60
2018-10-12T04:18:13.409Z,17.60
2018-10-12T04:19:15.637Z,17.60
2018-10-12T04:20:17.866Z,17.60
2018-10-12T04:21:20.562Z,17.50
2018-10-12T04:22:24.316Z,17.50
2018-10-12T04:23:26.864Z,17.50
2018-10-12T04:24:29.205Z,17.50
2018-10-12T04:25:31.577Z,17.50
2018-10-12T04:26:33.833Z,17.50
2018-10-12T04:27:36.077Z,17.50
2018-10-12T04:28:38.306Z,17.50
2018-10-12T04:29:40.606Z,17.50
2018-10-12T04:30:42.811Z,17.50
2018-10-12T04:31:45.007Z,17.60
2018-10-12T04:32:47.316Z,17.50
2018-10-12T04:33:50.056Z,17.60
2018-10-12T04:34:52.288Z,17.60
2018-10-12T04:35:54.462Z,17.60
2018-10-12T04:36:56.674Z,17.60
2018-10-12T04:37:58.917Z,17.60
2018-10-12T04:39:12.588Z,17.60
2018-10-12T04:40:51.301Z,17.60
2018-10-12T04:41:53.497Z,17.60
2018-10-12T04:42:55.676Z,17.60
2018-10-12T04:43:59.490Z,17.60
2018-10-12T04:45:01.735Z,17.60
2018-10-12T04:46:06.572Z,17.50
2018-10-12T04:47:08.932Z,17.50
2018-10-12T04:48:11.086Z,17.50
2018-10-12T04:49:14.658Z,17.50
2018-10-12T04:50:16.854Z,17.40
2018-10-12T04:51:26.166Z,17.50
2018-10-12T04:52:30.060Z,17.40
2018-10-12T04:53:32.385Z,17.40
2018-10-12T04:54:34.570Z,17.30
2018-10-12T04:55:36.810Z,17.30
2018-10-12T04:56:38.997Z,17.20
2018-10-12T04:57:41.258Z,17.20
2018-10-12T04:58:43.437Z,17.20
2018-10-12T04:59:45.699Z,17.10
2018-10-12T05:00:48.065Z,17.10
2018-10-12T05:01:50.250Z,17.10
2018-10-12T05:02:52.637Z,17.10
2018-10-12T05:03:54.891Z,17.10
2018-10-12T05:04:57.137Z,16.90
2018-10-12T05:06:00.191Z,17.10
2018-10-12T05:07:02.437Z,17.00
2018-10-12T05:08:05.023Z,17.00
2018-10-12T05:09:08.700Z,17.00
2018-10-12T05:10:11.406Z,17.00
2018-10-12T05:11:13.782Z,17.00
2018-10-12T05:12:16.169Z,17.00
2018-10-12T05:13:18.425Z,17.00
2018-10-12T05:14:20.658Z,17.00
2018-10-12T05:15:22.913Z,17.00
2018-10-12T05:16:25.168Z,17.00
2018-10-12T05:17:27.540Z,17.00
2018-10-12T05:18:29.923Z,17.00
2018-10-12T05:19:32.238Z,17.00
2018-10-12T05:20:34.619Z,17.00
2018-10-12T05:21:36.945Z,16.90
2018-10-12T05:22:39.140Z,17.00
2018-10-12T05:23:41.436Z,16.90
2018-10-12T05:24:43.722Z,16.90
2018-10-12T05:25:45.970Z,16.90
2018-10-12T05:26:48.210Z,16.90
2018-10-12T05:27:50.449Z,16.90
2018-10-12T05:28:52.780Z,16.90
2018-10-12T05:29:55.035Z,16.90
2018-10-12T05:30:57.264Z,16.90
2018-10-12T05:31:59.481Z,16.90
2018-10-12T05:33:01.810Z,16.90
2018-10-12T05:34:04.061Z,16.90
2018-10-12T05:35:06.373Z,16.90
2018-10-12T05:36:08.937Z,16.80
2018-10-12T05:37:11.138Z,16.80
2018-10-12T05:38:13.782Z,16.90
2018-10-12T05:39:16.008Z,16.80
2018-10-12T05:40:18.225Z,16.90
2018-10-12T05:41:20.424Z,16.90
2018-10-12T05:42:22.704Z,16.90
2018-10-12T05:43:24.989Z,16.90
2018-10-12T05:44:27.076Z,17.00
2018-10-12T05:45:29.305Z,17.00
2018-10-12T05:46:31.556Z,17.00
2018-10-12T05:47:33.974Z,17.00
2018-10-12T05:48:47.827Z,17.00
2018-10-12T05:50:00.702Z,17.10
2018-10-12T05:51:03.540Z,17.10
2018-10-12T05:52:05.848Z,17.10
2018-10-12T05:53:08.051Z,17.10
2018-10-12T05:54:10.471Z,17.10
2018-10-12T05:55:13.357Z,17.10
2018-10-12T05:56:18.509Z,17.10
2018-10-12T05:57:20.844Z,17.10
2018-10-12T05:58:23.083Z,17.10
2018-10-12T05:59:25.374Z,17.20
2018-10-12T06:00:27.580Z,17.10
2018-10-12T06:01:29.948Z,17.10
2018-10-12T06:02:32.271Z,17.10
2018-10-12T06:03:34.801Z,17.20
2018-10-12T06:04:36.983Z,17.20
2018-10-12T06:05:39.544Z,17.20
2018-10-12T06:06:41.743Z,17.20
2018-10-12T06:07:43.923Z,17.20
2018-10-12T06:08:46.132Z,17.20
2018-10-12T06:09:48.873Z,17.20
2018-10-12T06:10:50.988Z,17.20
2018-10-12T06:11:53.149Z,17.20
2018-10-12T06:12:55.330Z,17.20
2018-10-12T06:13:57.502Z,17.20
2018-10-12T06:14:59.712Z,17.20
2018-10-12T06:16:01.929Z,17.20
2018-10-12T06:17:04.112Z,17.30
2018-10-12T06:18:07.936Z,17.20
2018-10-12T06:19:10.413Z,17.20
2018-10-12T06:20:12.660Z,17.20
2018-10-12T06:21:14.872Z,17.20
2018-10-12T06:22:17.053Z,17.20
2018-10-12T06:23:19.215Z,17.20
2018-10-12T06:24:21.386Z,17.20
2018-10-12T06:25:23.537Z,17.20
2018-10-12T06:26:25.746Z,17.20
2018-10-12T06:27:27.976Z,17.20
2018-10-12T06:28:30.137Z,17.20
2018-10-12T06:29:32.309Z,17.20
2018-10-12T06:30:34.601Z,17.20
2018-10-12T06:31:36.942Z,17.20
2018-10-12T06:32:39.084Z,17.20
2018-10-12T06:33:41.289Z,17.20
2018-10-12T06:34:43.489Z,17.30
2018-10-12T06:35:45.654Z,17.20
2018-10-12T06:36:47.814Z,17.20
2018-10-12T06:37:50.021Z,17.30
2018-10-12T06:38:52.257Z,17.20
2018-10-12T06:39:54.501Z,17.20
2018-10-12T06:40:56.724Z,17.30
2018-10-12T06:41:58.861Z,17.30
2018-10-12T06:43:01.261Z,17.30
2018-10-12T06:44:03.433Z,17.30
2018-10-12T06:45:05.611Z,17.30
2018-10-12T06:46:07.823Z,17.40
2018-10-12T06:47:09.973Z,17.40
2018-10-12T06:48:12.276Z,17.40
2018-10-12T06:49:14.706Z,17.40
2018-10-12T06:50:16.901Z,17.40
2018-10-12T06:51:19.052Z,17.40
2018-10-12T06:52:21.573Z,17.40
2018-10-12T06:53:23.705Z,17.40
2018-10-12T06:54:25.837Z,17.40
2018-10-12T06:55:27.968Z,17.40
2018-10-12T06:56:31.156Z,17.40
2018-10-12T06:57:33.318Z,17.40
2018-10-12T06:58:35.448Z,17.40
2018-10-12T06:59:37.668Z,17.40
2018-10-12T07:00:40.045Z,17.40
2018-10-12T07:01:42.245Z,17.30
2018-10-12T07:02:44.414Z,17.40
2018-10-12T07:03:46.573Z,17.40
2018-10-12T07:04:49.530Z,17.40
2018-10-12T07:05:51.755Z,17.40
2018-10-12T07:06:53.945Z,17.40
2018-10-12T07:07:56.120Z,17.40
2018-10-12T07:08:58.279Z,17.50
2018-10-12T07:10:00.489Z,17.50
2018-10-12T07:11:02.638Z,17.50
2018-10-12T07:12:04.781Z,17.50
2018-10-12T07:13:07.251Z,17.50
2018-10-12T07:14:09.572Z,17.60
2018-10-12T07:15:11.590Z,17.60
2018-10-12T07:16:13.747Z,17.60
2018-10-12T07:17:15.891Z,17.60
2018-10-12T07:18:18.037Z,17.60
2018-10-12T07:19:20.227Z,17.60
2018-10-12T07:20:22.402Z,17.50
2018-10-12T07:21:24.543Z,17.50
2018-10-12T07:22:29.959Z,17.50
2018-10-12T07:23:32.189Z,17.50
2018-10-12T07:24:34.392Z,17.50
2018-10-12T07:25:36.583Z,17.50
2018-10-12T07:26:38.800Z,17.50
2018-10-12T07:27:41.417Z,17.50
2018-10-12T07:28:43.600Z,17.50
2018-10-12T07:29:45.799Z,17.50
2018-10-12T07:30:48.049Z,17.60
2018-10-12T07:31:50.177Z,17.60
2018-10-12T07:32:52.334Z,17.60
2018-10-12T07:33:54.462Z,17.60
2018-10-12T07:34:56.739Z,17.60
2018-10-12T07:35:58.881Z,17.60
2018-10-12T07:37:01.158Z,17.60
2018-10-12T07:38:03.302Z,17.60
2018-10-12T07:39:06.610Z,17.70
2018-10-12T07:40:08.850Z,17.70
2018-10-12T07:41:11.003Z,17.70
2018-10-12T07:43:22.614Z,17.70
2018-10-12T07:44:24.814Z,17.70
2018-10-12T07:45:27.036Z,17.70
2018-10-12T07:46:29.237Z,17.70
2018-10-12T07:47:31.473Z,17.70
2018-10-12T07:48:33.645Z,17.70
2018-10-12T07:49:35.900Z,17.70
2018-10-12T07:50:38.104Z,17.80
2018-10-12T07:51:40.292Z,17.80
2018-10-12T07:52:42.931Z,17.80
2018-10-12T07:53:45.390Z,17.80
2018-10-12T07:54:47.519Z,17.90
2018-10-12T07:55:49.767Z,17.90
2018-10-12T07:56:52.049Z,17.90
2018-10-12T07:57:54.266Z,18.00
2018-10-12T07:58:56.444Z,18.00
2018-10-12T07:59:59.317Z,18.10
2018-10-12T08:01:01.685Z,18.20
2018-10-12T08:02:03.839Z,18.20
2018-10-12T08:03:06.765Z,18.20
2018-10-12T08:04:08.926Z,18.30
2018-10-12T08:05:11.118Z,18.20
2018-10-12T08:06:13.357Z,18.30
2018-10-12T08:07:15.457Z,18.30
2018-10-12T08:08:17.658Z,18.30
2018-10-12T08:09:19.823Z,18.40
2018-10-12T08:10:22.033Z,18.40
2018-10-12T08:11:24.498Z,18.50
2018-10-12T08:12:26.653Z,18.50
2018-10-12T08:13:28.873Z,18.50
2018-10-12T08:14:30.961Z,18.60
2018-10-12T08:15:33.143Z,18.60
2018-10-12T08:16:35.324Z,18.70
2018-10-12T08:17:37.677Z,18.70
2018-10-12T08:18:40.239Z,18.70
2018-10-12T08:19:42.456Z,18.80
2018-10-12T08:20:45.043Z,18.80
2018-10-12T08:21:47.222Z,18.80
2018-10-12T08:22:49.410Z,18.80
2018-10-12T08:23:51.674Z,18.80
2018-10-12T08:24:53.874Z,18.80
2018-10-12T08:25:56.088Z,18.90
2018-10-12T08:26:58.323Z,18.90
2018-10-12T08:28:00.434Z,19.00
2018-10-12T08:29:02.595Z,19.00
2018-10-12T08:30:04.942Z,19.00
2018-10-12T08:31:07.180Z,19.00
2018-10-12T08:32:09.426Z,19.10
2018-10-12T08:33:11.628Z,19.10
2018-10-12T08:34:13.880Z,19.10
2018-10-12T08:35:16.082Z,19.20
2018-10-12T08:36:18.271Z,19.20
2018-10-12T08:37:20.510Z,19.20
2018-10-12T08:38:22.678Z,19.20
2018-10-12T08:39:24.865Z,19.30
2018-10-12T08:40:27.024Z,19.30
2018-10-12T08:41:29.226Z,19.30
2018-10-12T08:42:31.382Z,19.30
2018-10-12T08:43:33.605Z,19.40
2018-10-12T08:44:35.827Z,19.40
2018-10-12T08:45:38.021Z,19.40
2018-10-12T08:46:40.181Z,19.40
2018-10-12T08:47:42.448Z,19.40
2018-10-12T08:48:44.655Z,19.40
2018-10-12T08:49:46.832Z,19.50
2018-10-12T08:50:49.024Z,19.50
2018-10-12T08:51:51.237Z,19.50
2018-10-12T08:52:53.531Z,19.60
2018-10-12T08:53:55.691Z,19.60
2018-10-12T08:54:57.833Z,19.60
2018-10-12T08:55:59.969Z,19.70
2018-10-12T08:57:02.146Z,19.70
2018-10-12T08:58:04.336Z,19.70
2018-10-12T08:59:06.550Z,19.70
2018-10-12T09:00:08.718Z,19.80
2018-10-12T09:01:10.897Z,19.90
2018-10-12T09:02:13.067Z,19.80
2018-10-12T09:03:15.257Z,19.90
2018-10-12T09:04:17.414Z,19.90
2018-10-12T09:05:19.570Z,20.00
2018-10-12T09:06:21.803Z,20.00
2018-10-12T09:07:23.942Z,20.00
2018-10-12T09:08:26.124Z,20.10
2018-10-12T09:09:28.257Z,20.10
2018-10-12T09:10:30.469Z,20.10
2018-10-12T09:11:32.623Z,20.20
2018-10-12T09:12:35.065Z,20.20
2018-10-12T09:13:37.400Z,20.30
2018-10-12T09:14:39.585Z,20.30
2018-10-12T09:15:41.756Z,20.30
2018-10-12T09:16:43.915Z,20.30
2018-10-12T09:17:46.105Z,20.30
2018-10-12T09:18:48.318Z,20.40
2018-10-12T09:19:50.794Z,20.40
2018-10-12T09:20:53.046Z,20.40
2018-10-12T09:21:55.259Z,20.50
2018-10-12T09:22:57.404Z,20.50
2018-10-12T09:23:59.581Z,20.50
2018-10-12T09:25:01.785Z,20.50
2018-10-12T09:26:03.941Z,20.50
2018-10-12T09:27:06.622Z,20.60
2018-10-12T09:28:08.877Z,20.60
2018-10-12T09:29:11.009Z,20.60
2018-10-12T09:30:13.200Z,20.60
2018-10-12T09:31:15.370Z,20.60
2018-10-12T09:32:17.598Z,20.70
2018-10-12T09:33:19.766Z,20.80
2018-10-12T09:34:21.941Z,20.80
2018-10-12T09:35:24.104Z,20.80
2018-10-12T09:36:26.269Z,20.80
2018-10-12T09:37:28.437Z,20.90
2018-10-12T09:38:30.679Z,20.90
2018-10-12T09:39:32.913Z,20.90
2018-10-12T09:40:35.321Z,21.00
2018-10-12T09:41:37.878Z,21.00
2018-10-12T09:42:40.116Z,21.00
2018-10-12T09:43:42.397Z,21.10
2018-10-12T09:44:44.620Z,21.10
2018-10-12T09:45:46.846Z,21.10
2018-10-12T09:46:49.385Z,21.00
2018-10-12T09:47:51.733Z,21.20
2018-10-12T09:48:53.910Z,21.20
2018-10-12T09:49:56.412Z,21.20
2018-10-12T09:50:58.931Z,21.30
2018-10-12T09:52:01.131Z,21.30
2018-10-12T09:53:03.329Z,21.30
2018-10-12T09:54:05.547Z,21.30
2018-10-12T09:55:07.730Z,21.40
2018-10-12T09:56:10.066Z,21.40
2018-10-12T09:57:18.031Z,21.40
2018-10-12T09:58:20.267Z,21.50
2018-10-12T09:59:22.570Z,21.50
2018-10-12T10:00:30.695Z,21.50
2018-10-12T10:01:38.656Z,21.60
2018-10-12T10:02:46.450Z,21.60
2018-10-12T10:03:54.535Z,21.60
2018-10-12T10:05:02.428Z,21.70
2018-10-12T10:06:04.637Z,21.70
2018-10-12T10:07:06.853Z,21.70
2018-10-12T10:08:09.096Z,21.80
2018-10-12T10:09:11.277Z,21.80
2018-10-12T10:10:13.498Z,21.80
2018-10-12T10:11:15.745Z,21.80
2018-10-12T10:12:17.984Z,21.90
2018-10-12T10:13:20.222Z,21.90
2018-10-12T10:14:22.478Z,21.90
2018-10-12T10:15:24.739Z,21.90
2018-10-12T10:16:26.879Z,22.00
2018-10-12T10:17:29.082Z,22.00
2018-10-12T10:18:31.304Z,22.10
2018-10-12T10:19:33.473Z,22.10
2018-10-12T10:20:35.668Z,22.10
2018-10-12T10:21:38.046Z,22.10
2018-10-12T10:22:40.317Z,22.20
2018-10-12T10:23:42.524Z,22.20
2018-10-12T10:24:44.697Z,22.20
2018-10-12T10:25:46.869Z,22.30
2018-10-12T10:26:49.109Z,22.30
2018-10-12T10:27:51.290Z,22.30
2018-10-12T10:28:53.501Z,22.30
2018-10-12T10:29:55.873Z,22.40
2018-10-12T10:30:58.109Z,22.40
2018-10-12T10:32:00.247Z,22.40
2018-10-12T10:33:02.535Z,22.50
2018-10-12T10:34:04.797Z,22.50
2018-10-12T10:35:07.061Z,22.50
2018-10-12T10:36:09.288Z,22.60
2018-10-12T10:37:11.509Z,22.60
2018-10-12T10:38:13.712Z,22.60
2018-10-12T10:39:16.037Z,22.60
2018-10-12T10:40:18.105Z,22.80
2018-10-12T10:41:20.597Z,22.70
2018-10-12T10:42:22.821Z,22.70
2018-10-12T10:43:25.072Z,22.80
2018-10-12T10:44:27.711Z,22.80
2018-10-12T10:45:29.901Z,22.80
2018-10-12T10:46:32.083Z,22.80
2018-10-12T10:47:34.346Z,22.90
2018-10-12T10:48:36.545Z,22.90
2018-10-12T10:49:38.841Z,22.90
2018-10-12T10:50:41.137Z,23.00
2018-10-12T10:51:43.336Z,23.00
2018-10-12T10:52:45.629Z,23.00
2018-10-12T10:53:48.102Z,23.00
2018-10-12T10:54:50.362Z,23.00
2018-10-12T10:55:52.522Z,23.10
2018-10-12T10:57:00.278Z,23.10
2018-10-12T10:58:02.429Z,23.10
2018-10-12T10:59:04.642Z,23.20
2018-10-12T11:00:07.154Z,23.20
2018-10-12T11:01:09.387Z,23.20
2018-10-12T11:02:11.609Z,23.20
2018-10-12T11:03:13.755Z,23.30
2018-10-12T11:04:15.919Z,23.30
2018-10-12T11:05:18.078Z,23.30
2018-10-12T11:06:20.308Z,23.30
2018-10-12T11:07:22.438Z,23.30
2018-10-12T11:08:24.560Z,23.40
2018-10-12T11:09:26.782Z,23.40
2018-10-12T11:10:28.949Z,23.40
2018-10-12T11:11:31.140Z,23.40
2018-10-12T11:12:33.356Z,23.50
2018-10-12T11:13:35.512Z,23.50
2018-10-12T11:14:37.653Z,23.50
2018-10-12T11:15:39.832Z,23.50
2018-10-12T11:16:42.103Z,23.50
2018-10-12T11:17:44.297Z,23.60
2018-10-12T11:18:46.586Z,23.50
2018-10-12T11:19:48.784Z,23.60
2018-10-12T11:20:51.033Z,23.60
2018-10-12T11:21:53.293Z,23.60
2018-10-12T11:22:55.450Z,23.70
2018-10-12T11:23:57.592Z,23.70
2018-10-12T11:25:00.002Z,23.70
2018-10-12T11:26:02.265Z,23.70
2018-10-12T11:27:04.418Z,23.70
2018-10-12T11:28:06.756Z,23.80
2018-10-12T11:29:09.124Z,23.80
2018-10-12T11:30:11.312Z,23.80
2018-10-12T11:31:13.493Z,23.90
2018-10-12T11:32:15.649Z,23.90
2018-10-12T11:33:17.885Z,23.90
2018-10-12T11:34:20.032Z,24.00
2018-10-12T11:35:22.178Z,24.00
2018-10-12T11:36:24.326Z,24.00
2018-10-12T11:37:26.531Z,24.00
2018-10-12T11:38:28.758Z,24.00
2018-10-12T11:39:30.901Z,24.00
2018-10-12T11:40:33.159Z,24.00
2018-10-12T11:41:35.399Z,24.10
2018-10-12T11:42:49.231Z,24.10
2018-10-12T11:43:51.526Z,24.20
2018-10-12T11:44:53.831Z,24.20
2018-10-12T11:45:56.097Z,24.20
2018-10-12T11:46:58.289Z,24.20
2018-10-12T11:48:00.476Z,24.20
2018-10-12T11:49:02.877Z,24.30
2018-10-12T11:50:05.142Z,24.30
2018-10-12T11:51:07.320Z,24.30
2018-10-12T11:52:09.483Z,24.30
2018-10-12T11:53:11.609Z,24.30
2018-10-12T11:54:13.747Z,24.40
2018-10-12T11:55:15.903Z,24.40
2018-10-12T11:56:18.037Z,24.50
2018-10-12T11:57:20.165Z,24.50
2018-10-12T11:58:22.503Z,24.50
2018-10-12T11:59:24.967Z,24.50
2018-10-12T12:00:27.125Z,24.50
2018-10-12T12:01:29.275Z,24.50
2018-10-12T12:02:31.421Z,24.60
2018-10-12T12:03:33.599Z,24.60
2018-10-12T12:04:35.802Z,24.60
2018-10-12T12:05:38.450Z,24.60
2018-10-12T12:06:40.596Z,24.60
2018-10-12T12:07:42.721Z,24.60
2018-10-12T12:08:45.807Z,24.60
2018-10-12T12:09:47.993Z,24.70
2018-10-12T12:10:50.141Z,24.70
2018-10-12T12:11:52.298Z,24.70
2018-10-12T12:12:54.429Z,24.70
2018-10-12T12:13:56.664Z,24.70
2018-10-12T12:14:58.701Z,24.70
2018-10-12T12:16:00.829Z,24.70
2018-10-12T12:17:03.017Z,24.80
2018-10-12T12:18:05.777Z,24.80
2018-10-12T12:19:07.940Z,24.80
2018-10-12T12:20:10.151Z,24.90
2018-10-12T12:21:12.340Z,24.90
2018-10-12T12:22:14.464Z,24.90
2018-10-12T12:23:16.653Z,24.90
2018-10-12T12:24:18.799Z,25.00
2018-10-12T12:25:21.161Z,25.00
2018-10-12T12:26:23.327Z,25.00
2018-10-12T12:27:25.480Z,25.00
2018-10-12T12:28:27.845Z,25.10
2018-10-12T12:29:29.984Z,25.10
2018-10-12T12:30:32.166Z,25.10
2018-10-12T12:31:34.297Z,25.10
2018-10-12T12:32:36.421Z,25.10
2018-10-12T12:33:38.603Z,25.20
2018-10-12T12:34:40.911Z,25.20
2018-10-12T12:35:43.243Z,25.20
2018-10-12T12:36:45.126Z,25.20
2018-10-12T12:37:47.293Z,25.20
2018-10-12T12:38:49.429Z,25.20
2018-10-12T12:39:51.622Z,25.20
2018-10-12T12:40:54.038Z,25.30
2018-10-12T12:41:56.192Z,25.30
2018-10-12T12:42:58.405Z,25.30
2018-10-12T12:44:00.586Z,25.30
2018-10-12T12:45:02.825Z,25.40
2018-10-12T12:46:05.014Z,25.40
2018-10-12T12:47:07.426Z,25.40
2018-10-12T12:48:09.804Z,25.40
2018-10-12T12:49:12.166Z,25.50
2018-10-12T12:50:13.972Z,25.50
2018-10-12T12:51:16.150Z,25.50
2018-10-12T12:52:18.364Z,25.50
2018-10-12T12:53:20.863Z,25.50
2018-10-12T12:54:23.376Z,25.60
2018-10-12T12:55:25.537Z,25.60
2018-10-12T12:56:27.701Z,25.60
2018-10-12T12:57:29.901Z,25.60
2018-10-12T12:58:32.090Z,25.60
2018-10-12T12:59:34.320Z,25.70
2018-10-12T13:00:36.571Z,25.60
2018-10-12T13:01:38.712Z,25.70
2018-10-12T13:02:40.881Z,25.70
2018-10-12T13:03:43.144Z,25.80
2018-10-12T13:04:45.298Z,25.80
2018-10-12T13:05:47.468Z,25.80
2018-10-12T13:06:49.611Z,25.80
2018-10-12T13:07:51.830Z,25.90
2018-10-12T13:08:54.007Z,26.00
2018-10-12T13:09:56.148Z,25.90
2018-10-12T13:10:58.321Z,26.00
2018-10-12T13:12:00.466Z,26.00
2018-10-12T13:13:02.646Z,26.00
2018-10-12T13:14:04.849Z,26.10
2018-10-12T13:15:07.020Z,26.10
2018-10-12T13:16:09.353Z,26.10
2018-10-12T13:17:11.646Z,26.10
2018-10-12T13:18:13.814Z,26.10
2018-10-12T13:19:15.993Z,26.20
2018-10-12T13:20:18.425Z,26.20
2018-10-12T13:21:20.607Z,26.20
2018-10-12T13:22:22.785Z,26.30
2018-10-12T13:23:24.933Z,26.20
2018-10-12T13:24:27.125Z,26.30
2018-10-12T13:25:29.335Z,26.30
2018-10-12T13:26:31.836Z,26.30